Skip to main content

NOAA/GLERL Met Station at Michigan City, IN

Previous 5 days (top of hour only)
See also Previous 3 Hours (2 minute increments)
Jump down to Data
Switch to [English][Metric]
Zoom: Click and drag, Pan: shift-click and drag, Unzoom: double-click, Unzoom All





Note: Speed = mean wind during 2-minute period at top of hour,
Gust = max wind during 2-minute period at top of hour,
Peak = max wind during entire hour.
• See also 5-day windrose plot


NOAA/GLERL Met Station at Michigan City, IN

Previous 5 days (top of hour only)
See also Previous 3 Hours (2 minute increments)
Jump up to Graphs
Switch to [English][Metric]
                  Wind  Wind  Wind   Air   Dew   Rel     Sta   PAR
                   Spd   Gst   Dir  Temp    Pt   Hum    Pres uE/m2/
YYYY-MM-DD   CDT   kts   kts   deg     F     F     %   in Hg   sec
2020-08-11 00:00 -99.0 -99.0   -99   0.0   0.0   0.0    0.00     0
2020-08-10 11:00  11.1  13.2   214  81.0  73.4  77.5    0.00  1093
2020-08-10 10:00  12.1  14.6   208  80.2  73.1  78.6    0.00  1137
2020-08-10 09:00  14.4  17.5   191  78.6  72.3  80.7    0.00   903
2020-08-10 08:00  13.4  17.7   188  77.0  71.1  81.8    0.00   608
2020-08-10 07:00   9.9  12.4   165  74.3  71.0  89.2    0.00    82
2020-08-10 06:00  10.3  12.2   166  73.9  71.0  90.5    0.00     0
2020-08-10 05:00   8.9  12.2   165  73.6  71.3  92.3    0.00     0
2020-08-10 04:00  11.7  14.6   178  74.3  71.7  91.3    0.00     0
2020-08-10 03:00  11.5  13.0   190  74.3  71.7  91.3    0.00     0
2020-08-10 02:00   7.0   8.4   152  74.5  71.6  90.6    0.00     0
2020-08-10 01:00   6.4   7.6   148  73.4  70.8  91.3    0.00     0
2020-08-10 00:00   9.1  11.7   124  71.8  70.5  95.7    0.00     0
2020-08-09 23:00  18.5  19.8    11  72.0  69.9  93.1    0.00     0
2020-08-09 22:00   7.4   8.9   195  80.4  71.6  74.1    0.00     0
2020-08-09 21:00   7.4   8.7   193  80.6  71.3  72.8    0.00     0
2020-08-09 20:00   8.0   8.7   207  81.7  70.8  69.2    0.00     0
2020-08-09 19:00  12.4  15.6   197  83.5  70.0  63.3    0.00   164
2020-08-09 18:00  14.2  15.7   204  84.4  70.0  61.5    0.00   460
2020-08-09 17:00  12.4  15.6   182  85.1  70.6  61.2    0.00   759
2020-08-09 16:00  14.2  17.7   187  85.5  69.9  59.1    0.00   685
2020-08-09 15:00  12.1  15.0   174  85.5  68.7  56.6    0.00  1393
2020-08-09 14:00  12.1  16.1   183  84.2  68.3  58.2    0.00  1612
2020-08-09 13:00  10.1  12.4   215  83.7  66.9  56.4    0.00  1634
2020-08-09 12:00   7.8   8.6   207  81.9  68.3  63.0    0.00  1549
2020-08-09 11:00   4.9   7.4   230  81.1  67.0  61.6    0.00  1395
2020-08-09 10:00   5.8   6.2   226  78.6  67.1  67.4    0.00  1149
2020-08-09 09:00   8.0   9.5   222  77.0  67.5  72.2    0.00   903
2020-08-09 08:00   7.6   8.6   198  74.3  67.7  79.6    0.00   584
2020-08-09 07:00   8.9  10.3   201  72.1  66.3  81.7    0.00   247
2020-08-09 06:00   4.9   6.4   215  71.2  66.3  84.3    0.00     0
2020-08-09 05:00   9.7  12.1   176  73.0  66.3  79.2    0.00     0
2020-08-09 04:00  11.1  13.0   176  73.8  66.8  78.4    0.00     0
2020-08-09 03:00  14.2  17.5   174  73.9  66.6  77.6    0.00     0
2020-08-09 02:00  10.5  12.6   188  73.8  66.5  77.6    0.00     0
2020-08-09 01:00   8.4  10.3   186  74.3  66.5  76.4    0.00     0
2020-08-09 00:00  10.7  14.0   179  75.6  66.5  73.0    0.00     0
2020-08-08 23:00   9.9  13.2   185  76.3  66.7  71.9    0.00     0
2020-08-08 22:00   9.1  10.5   190  76.5  67.1  72.5    0.00     0
2020-08-08 21:00  10.7  13.6   190  77.9  67.3  69.4    0.00     0
2020-08-08 20:00   9.3  10.1   191  79.3  67.4  66.4    0.00     0
2020-08-08 19:00  10.3  12.8   188  81.0  67.1  62.3    0.00   164
2020-08-08 18:00   8.6  10.9   180  82.0  66.2  58.2    0.00   492
2020-08-08 17:00   8.0  11.7   155  81.9  65.7  57.5    0.00   824
2020-08-08 16:00   9.3  11.9   176  81.0  64.2  56.2    0.00  1067
2020-08-08 15:00  12.2  14.4   182  80.2  63.3  55.8    0.00   950
2020-08-08 14:00   7.0   8.0   162  79.0  61.9  55.2    0.00  1486
2020-08-08 13:00  10.7  13.0   152  78.1  61.2  55.6    0.00  1617
2020-08-08 12:00  13.2  15.7   177  77.2  59.6  54.1    0.00   537
2020-08-08 11:00  12.8  16.9   203  75.7  58.5  54.6    0.00   708
2020-08-08 10:00  10.1  13.4   185  74.3  56.8  53.9    0.00  1090
2020-08-08 09:00   9.5  12.6   178  73.2  55.8  53.9    0.00   904
2020-08-08 08:00   7.4   8.6   177  70.2  56.7  61.9    0.00   657
2020-08-08 07:00   8.4  11.3   158  67.8  56.0  65.5    0.00   325
2020-08-08 06:00   8.7  10.9   187  67.6  55.9  65.7    0.00     0
2020-08-08 05:00   9.9  12.6   173  67.1  56.3  67.9    0.00     0
2020-08-08 04:00   6.4   8.7   155  66.6  56.2  69.0    0.00     0
2020-08-08 03:00   8.7  10.5   157  67.5  56.5  67.6    0.00     0
2020-08-08 02:00   8.0   9.1   156  68.5  57.1  66.5    0.00     0
2020-08-08 01:00   7.0   7.6   159  69.4  57.1  64.3    0.00     0
2020-08-08 00:00   6.4   7.2   147  68.5  58.1  68.9    0.00     0
2020-08-07 23:00   6.2   7.2   144  69.4  58.3  67.3    0.00     0
2020-08-07 22:00   5.6   5.8   136  70.5  58.6  65.4    0.00     0
2020-08-07 21:00   4.5   4.9   132  73.4  58.1  58.3    0.00     0
2020-08-07 20:00   4.7   5.1   130  76.6  56.7  49.5    0.00     0
2020-08-07 19:00   2.5   3.9   191  77.5  58.9  52.0    0.00   221
2020-08-07 18:00   5.8   6.6    54  75.4  60.9  60.3    0.00   492
2020-08-07 17:00   5.8   6.0    33  75.2  60.4  59.6    0.00   902
2020-08-07 16:00   8.4   8.7    17  74.7  59.4  58.5    0.00  1149
2020-08-07 15:00   6.6   7.0     5  77.0  60.9  57.1    0.00  1396
2020-08-07 14:00   7.0   7.4   350  77.0  60.7  56.6    0.00  1554
2020-08-07 13:00   7.8   8.6     5  74.3  60.5  61.6    0.00  1641
2020-08-07 12:00   7.8   8.6    14  72.9  59.7  62.8    0.00  1559
2020-08-07 11:00   6.6   7.0   355  74.8  58.5  56.2    0.00   756
2020-08-07 10:00   2.3   2.9   331  75.7  58.2  53.9    0.00  1151
2020-08-07 09:00   1.7   1.9   225  72.0  56.4  57.6    0.00   904
2020-08-07 08:00   4.3   4.7   156  68.2  57.1  67.2    0.00   658
2020-08-07 07:00   4.9   5.6   156  64.4  55.9  73.5    0.00   329
2020-08-07 06:00   7.2   7.6   148  63.5  55.7  75.5    0.00     0
2020-08-07 05:00   7.2   7.6   149  62.4  56.4  80.3    0.00     0
2020-08-07 04:00   8.0   8.2   136  64.2  55.6  73.3    0.00     0
2020-08-07 03:00   5.2   6.2   150  64.2  56.1  74.7    0.00     0
2020-08-07 02:00   8.0   9.1   121  65.3  55.9  71.2    0.00     0
2020-08-07 01:00   2.5   4.1    99  67.3  57.1  69.5    0.00     0
2020-08-07 00:00   5.4   6.4   105  67.6  57.2  68.8    0.00     0
2020-08-06 23:00   5.6   6.0   115  68.5  57.9  68.4    0.00     0
2020-08-06 22:00   4.5   5.4    98  69.6  57.6  65.1    0.00     0
2020-08-06 21:00   4.9   6.0    91  70.5  59.7  68.1    0.00     0
2020-08-06 20:00   6.8   7.4    62  71.8  60.3  66.7    0.00     0
2020-08-06 19:00   6.8   7.6    45  72.0  60.8  67.5    0.00   164
2020-08-06 18:00   7.2   7.8    23  72.9  59.0  61.3    0.00   492
2020-08-06 17:00   5.4   6.0   356  76.8  59.6  54.8    0.00   902
2020-08-06 16:00   6.4   6.8     3  75.4  59.2  56.7    0.00  1149
2020-08-06 15:00   5.6   6.0   345  76.1  59.7  56.3    0.00  1395
2020-08-06 14:00   5.8   6.2   350  75.4  60.7  59.8    0.00  1559
2020-08-06 13:00   6.6   7.4   294  73.8  59.2  59.8    0.00  1641
2020-08-06 12:00   7.6   8.2   264  71.2  57.1  60.4    0.00  1642
2020-08-06 11:00   5.1   6.0   204  71.2  54.2  54.4    0.00  1377
2020-08-06 10:00   8.9  10.3   218  70.5  52.7  52.8    0.00  1340
2020-08-06 09:00   7.4   8.7   194  68.2  54.5  61.2    0.00   594
2020-08-06 08:00   6.6   8.2   189  67.5  54.6  62.9    0.00   164
2020-08-06 07:00   6.8   8.4   157  65.3  53.7  65.6    0.00   164
2020-08-06 06:00   6.6   7.8   157  64.9  52.3  63.3    0.00     0
2020-08-06 05:00   6.0   6.8   156  64.6  52.1  63.6    0.00     0
2020-08-06 04:00   4.3   5.4   168  63.7  53.3  68.7    0.00     0
2020-08-06 03:00   6.0   7.0   198  63.5  51.3  64.1    0.00     0
2020-08-06 02:00   5.2   6.4   142  63.0  51.4  65.6    0.00     0
2020-08-06 01:00   5.2   5.8   141  63.1  51.5  65.4    0.00     0
2020-08-06 00:00   4.7   5.4   142  63.7  53.5  69.2    0.00     0
2020-08-05 23:00   4.3   4.7   134  64.8  53.1  65.4    0.00     0
2020-08-05 22:00   5.4   5.8   140  66.7  52.3  59.2    0.00     0
2020-08-05 21:00   2.7   3.1   132  69.3  51.7  53.0    0.00     0
2020-08-05 20:00   4.5   5.2   129  70.9  48.8  45.0    0.00     0
2020-08-05 19:00   5.6   6.4    94  71.8  48.5  43.1    0.00   246